Главная страница
METAR-TAF:

METAR-TAF

Аэропорты :

Somerset Airport

Сомервилл, Нью-Джерси, США

широта: 40-37-26N, долгота: 074-40-10W, высота над уровнем моря: 32 м

Текущие метеонаблюдения

Эта сводка был подготовлена 8 минут назад, в 22:53 UTC
Ветер 9 Узел от восточно-юго-восточный
Температура 16°C
Влажность 39%
Давление 1009 hPa
Видимость: 16.1 км
ясное небо

METAR: KSMQ 072253Z AUTO 12009KT 10SM CLR 16/02 A2981 RMK AO2 SLP095 T01560022

Время: 19:01 (23:01 UTC)


TAF: отсутствует

Метеонаблюдения и прогнозы для более 4000 аэропортов (сводки METAR и TAF).

Имеющиеся станции представлены на карте желтыми и красными точками.

Чтобы увидеть название станции, наведите на нее мышь.

Затем щелкните, чтобы увидеть метеонаблюдения и метеопрогнозы.

Управление картой: чтобы увеличить масштаб, щелкните зеленые кнопки с черным крестиком; чтобы уменьшить масштаб, щелкните зеленую кнопку с тире; для просмотра соседних карт щелкайте зеленые стрелки.


METAR-TAF: